createdAt,value
2023-01-11T00:00:05.287Z,1.65
2023-01-11T00:02:38.666Z,1.60
2023-01-11T00:05:06.043Z,1.80
2023-01-11T00:07:32.873Z,1.70
2023-01-11T00:10:02.029Z,1.90
2023-01-11T00:12:28.828Z,1.55
2023-01-11T00:14:55.666Z,1.52
2023-01-11T00:17:22.932Z,1.77
2023-01-11T00:19:49.730Z,2.03
2023-01-11T00:22:16.699Z,2.35
2023-01-11T00:24:43.484Z,1.58
2023-01-11T00:27:10.364Z,2.33
2023-01-11T00:29:37.153Z,1.73
2023-01-11T00:32:04.332Z,1.40
2023-01-11T00:34:31.266Z,1.50
2023-01-11T00:36:58.170Z,1.58
2023-01-11T00:39:25.084Z,2.08
2023-01-11T00:42:10.396Z,1.70
2023-01-11T00:44:55.696Z,1.95
2023-01-11T00:47:40.950Z,1.52
2023-01-11T00:50:08.362Z,1.88
2023-01-11T00:52:35.168Z,1.70
2023-01-11T00:55:02.140Z,1.70
2023-01-11T00:57:29.015Z,1.67
2023-01-11T00:59:55.895Z,1.58
2023-01-11T01:02:22.917Z,1.83
2023-01-11T01:04:49.825Z,1.88
2023-01-11T01:07:16.708Z,1.63
2023-01-11T01:09:43.559Z,1.90
2023-01-11T01:12:10.372Z,2.28
2023-01-11T01:14:37.283Z,1.85
2023-01-11T01:17:08.017Z,1.88
2023-01-11T01:19:38.410Z,1.90
2023-01-11T01:22:05.344Z,1.80
2023-01-11T01:24:32.624Z,1.88
2023-01-11T01:26:59.577Z,1.92
2023-01-11T01:29:26.469Z,2.35
2023-01-11T01:31:55.838Z,2.45
2023-01-11T01:34:22.713Z,1.88
2023-01-11T01:36:49.626Z,1.90
2023-01-11T01:39:16.540Z,2.25
2023-01-11T01:41:43.421Z,1.85
2023-01-11T01:44:47.816Z,1.85
2023-01-11T01:47:14.785Z,1.90
2023-01-11T01:49:41.605Z,1.70
2023-01-11T01:52:08.525Z,2.25
2023-01-11T01:54:37.156Z,1.90
2023-01-11T01:57:06.721Z,2.10
2023-01-11T01:59:33.563Z,2.00
2023-01-11T02:02:00.595Z,2.00
2023-01-11T02:04:31.225Z,3.28
2023-01-11T02:07:03.417Z,2.60
2023-01-11T02:09:30.288Z,2.65
2023-01-11T02:11:57.179Z,2.30
2023-01-11T02:14:24.045Z,2.10
2023-01-11T02:16:50.889Z,2.40
2023-01-11T02:19:46.799Z,2.33
2023-01-11T02:22:33.751Z,2.25
2023-01-11T02:25:00.593Z,2.50
2023-01-11T02:27:55.469Z,2.10
2023-01-11T02:30:48.502Z,2.60
2023-01-11T02:33:27.478Z,2.53
2023-01-11T02:36:00.108Z,2.15
2023-01-11T02:38:42.268Z,2.08
2023-01-11T02:41:28.234Z,2.00
2023-01-11T02:44:24.258Z,2.50
2023-01-11T02:46:56.881Z,2.20
2023-01-11T02:49:38.191Z,1.98
2023-01-11T02:52:08.823Z,2.30
2023-01-11T02:54:35.668Z,2.65
2023-01-11T02:57:02.499Z,2.47
2023-01-11T02:59:33.351Z,2.85
2023-01-11T03:02:00.912Z,2.63
2023-01-11T03:04:35.751Z,2.17
2023-01-11T03:07:27.095Z,2.10
2023-01-11T03:10:00.153Z,2.28
2023-01-11T03:12:54.684Z,2.35
2023-01-11T03:15:45.072Z,2.05
2023-01-11T03:18:36.668Z,2.70
2023-01-11T03:21:14.965Z,2.25
2023-01-11T03:23:53.777Z,2.22
2023-01-11T03:26:38.875Z,2.50
2023-01-11T03:29:17.410Z,3.30
2023-01-11T03:31:59.974Z,2.55
2023-01-11T03:37:11.493Z,2.22
2023-01-11T03:39:55.274Z,1.83
2023-01-11T03:42:22.407Z,2.05
2023-01-11T03:44:51.974Z,2.67
2023-01-11T03:47:18.997Z,2.60
2023-01-11T03:49:47.973Z,2.45
2023-01-11T03:52:15.910Z,2.58
2023-01-11T03:54:42.844Z,2.53
2023-01-11T03:57:17.947Z,2.38
2023-01-11T03:59:44.870Z,2.20
2023-01-11T04:02:19.597Z,2.28
2023-01-11T04:04:46.545Z,2.60
2023-01-11T04:07:13.771Z,2.38
2023-01-11T04:09:40.662Z,2.42
2023-01-11T04:12:07.608Z,2.75
2023-01-11T04:14:34.539Z,2.47
2023-01-11T04:17:01.396Z,2.60
2023-01-11T04:19:28.423Z,2.63
2023-01-11T04:21:55.283Z,2.72
2023-01-11T04:24:22.111Z,3.03
2023-01-11T04:26:49.003Z,2.47
2023-01-11T04:29:15.862Z,2.40
2023-01-11T04:31:42.875Z,2.55
2023-01-11T04:34:11.487Z,2.50
2023-01-11T04:36:38.426Z,2.53
2023-01-11T04:39:06.456Z,2.33
2023-01-11T04:41:51.854Z,2.67
2023-01-11T04:44:18.720Z,2.42
2023-01-11T04:46:45.540Z,2.33
2023-01-11T04:49:12.432Z,2.40
2023-01-11T04:51:39.302Z,2.13
2023-01-11T04:54:06.270Z,2.60
2023-01-11T04:56:33.189Z,2.28
2023-01-11T04:59:00.152Z,2.78
2023-01-11T05:01:27.028Z,2.20
2023-01-11T05:03:54.759Z,2.10
2023-01-11T05:06:25.761Z,2.60
2023-01-11T05:08:52.693Z,2.60
2023-01-11T05:11:19.569Z,2.67
2023-01-11T05:13:46.606Z,3.28
2023-01-11T05:16:21.124Z,2.13
2023-01-11T05:18:51.938Z,2.88
2023-01-11T05:21:23.650Z,3.03
2023-01-11T05:23:50.534Z,2.97
2023-01-11T05:26:19.150Z,3.22
2023-01-11T05:28:46.475Z,2.40
2023-01-11T05:31:13.372Z,3.33
2023-01-11T05:33:40.232Z,2.58
2023-01-11T05:36:08.998Z,2.70
2023-01-11T05:38:35.896Z,2.38
2023-01-11T05:41:04.654Z,2.55
2023-01-11T05:43:31.729Z,3.20
2023-01-11T05:45:58.981Z,2.83
2023-01-11T05:48:25.859Z,2.72
2023-01-11T05:50:55.804Z,2.67
2023-01-11T05:53:23.777Z,2.75
2023-01-11T05:55:54.993Z,3.50
2023-01-11T05:58:22.448Z,2.63
2023-01-11T06:00:53.723Z,3.28
2023-01-11T06:03:20.892Z,3.10
2023-01-11T06:05:47.804Z,2.90
2023-01-11T06:08:14.705Z,2.75
2023-01-11T06:10:41.741Z,3.22
2023-01-11T06:13:26.534Z,2.28
2023-01-11T06:15:53.817Z,3.22
2023-01-11T06:18:20.949Z,3.67
2023-01-11T06:20:51.296Z,2.92
2023-01-11T06:23:18.611Z,2.90
2023-01-11T06:25:45.584Z,2.90
2023-01-11T06:28:12.508Z,2.55
2023-01-11T06:30:39.581Z,3.22
2023-01-11T06:33:06.878Z,2.88
2023-01-11T06:35:38.170Z,2.60
2023-01-11T06:38:05.953Z,2.63
2023-01-11T06:40:32.818Z,2.83
2023-01-11T06:42:59.703Z,2.72
2023-01-11T06:45:26.533Z,2.28
2023-01-11T06:47:53.473Z,2.42
2023-01-11T06:50:20.323Z,2.50
2023-01-11T06:52:57.879Z,2.92
2023-01-11T06:55:25.647Z,3.13
2023-01-11T06:57:52.553Z,2.47
2023-01-11T07:00:19.778Z,2.75
2023-01-11T07:02:46.895Z,2.88
2023-01-11T07:05:13.972Z,2.25
2023-01-11T07:07:41.042Z,2.30
2023-01-11T07:10:12.565Z,3.38
2023-01-11T07:12:39.507Z,2.20
2023-01-11T07:15:07.409Z,2.92
2023-01-11T07:17:34.451Z,2.67
2023-01-11T07:20:01.291Z,2.42
2023-01-11T07:22:28.360Z,2.85
2023-01-11T07:24:55.259Z,2.78
2023-01-11T07:27:22.288Z,2.80
2023-01-11T07:29:49.224Z,2.88
2023-01-11T07:32:16.273Z,2.60
2023-01-11T07:34:46.129Z,2.70
2023-01-11T07:37:28.188Z,2.70
2023-01-11T07:39:56.439Z,3.00
2023-01-11T07:42:41.981Z,2.53
2023-01-11T07:45:09.409Z,2.72
2023-01-11T07:47:36.266Z,3.10
2023-01-11T07:50:03.423Z,2.58
2023-01-11T07:52:30.300Z,3.13
2023-01-11T07:55:02.354Z,2.97
2023-01-11T07:57:33.260Z,2.40
2023-01-11T08:00:00.212Z,2.35
2023-01-11T08:02:27.248Z,2.40
2023-01-11T08:04:54.180Z,2.50
2023-01-11T08:07:21.319Z,2.58
2023-01-11T08:09:48.372Z,2.60
2023-01-11T08:12:33.873Z,2.33
2023-01-11T08:15:00.820Z,2.10
2023-01-11T08:17:27.634Z,2.28
2023-01-11T08:19:55.932Z,2.25
2023-01-11T08:22:25.024Z,1.90
2023-01-11T08:24:52.082Z,2.17
2023-01-11T08:27:19.152Z,1.73
2023-01-11T08:29:46.150Z,1.75
2023-01-11T08:32:13.140Z,2.13
2023-01-11T08:34:40.307Z,2.28
2023-01-11T08:37:07.223Z,2.25
2023-01-11T08:39:34.122Z,2.30
2023-01-11T08:42:01.136Z,2.75
2023-01-11T08:44:35.354Z,2.42
2023-01-11T08:47:02.972Z,2.25
2023-01-11T08:49:30.826Z,2.33
2023-01-11T08:51:57.839Z,2.50
2023-01-11T08:54:25.211Z,2.47
2023-01-11T08:56:52.241Z,2.92
2023-01-11T08:59:20.116Z,2.35
2023-01-11T09:01:47.395Z,2.50
2023-01-11T09:04:24.305Z,2.40
2023-01-11T09:06:53.088Z,2.70
2023-01-11T09:09:20.046Z,2.70
2023-01-11T09:12:00.905Z,2.80
2023-01-11T09:14:28.227Z,2.70
2023-01-11T09:16:55.195Z,2.40
2023-01-11T09:19:22.194Z,2.80
2023-01-11T09:21:49.145Z,2.70
2023-01-11T09:24:16.015Z,2.55
2023-01-11T09:26:43.632Z,3.25
2023-01-11T09:29:11.438Z,2.97
2023-01-11T09:31:38.579Z,3.00
2023-01-11T09:34:06.953Z,2.58
2023-01-11T09:36:39.915Z,2.47
2023-01-11T09:39:10.401Z,2.67
2023-01-11T09:41:43.023Z,2.50
2023-01-11T09:44:19.091Z,2.90
2023-01-11T09:46:48.570Z,2.92
2023-01-11T09:49:19.002Z,3.30
2023-01-11T09:51:46.223Z,2.83
2023-01-11T09:54:19.061Z,2.70
2023-01-11T09:57:14.754Z,2.80
2023-01-11T09:59:52.983Z,2.55
2023-01-11T10:02:25.029Z,2.28
2023-01-11T10:05:10.898Z,2.80
2023-01-11T10:18:31.762Z,2.40
2023-01-11T10:18:32.991Z,2.50
2023-01-11T10:20:24.441Z,3.47
2023-01-11T10:22:57.967Z,2.28
2023-01-11T10:25:31.229Z,2.38
2023-01-11T10:28:00.809Z,3.05
2023-01-11T10:31:07.975Z,3.35
2023-01-11T10:33:57.956Z,2.33
2023-01-11T10:36:57.850Z,2.03
2023-01-11T10:40:06.478Z,2.33
2023-01-11T10:42:38.170Z,2.60
2023-01-11T10:45:12.352Z,3.33
2023-01-11T10:47:59.491Z,2.45
2023-01-11T10:50:48.287Z,2.50
2023-01-11T10:53:25.733Z,2.40
2023-01-11T10:56:17.083Z,2.45
2023-01-11T10:58:53.428Z,2.10
2023-01-11T11:01:46.094Z,2.60
2023-01-11T11:04:50.078Z,2.45
2023-01-11T11:07:32.757Z,2.03
2023-01-11T11:13:10.781Z,2.70
2023-01-11T11:16:05.042Z,2.15
2023-01-11T11:18:31.996Z,2.33
2023-01-11T11:21:02.973Z,2.20
2023-01-11T11:23:29.871Z,2.13
2023-01-11T11:25:57.705Z,2.20
2023-01-11T11:28:27.484Z,1.88
2023-01-11T11:30:58.831Z,2.05
2023-01-11T11:33:36.401Z,1.90
2023-01-11T11:36:10.668Z,1.90
2023-01-11T11:38:39.058Z,1.80
2023-01-11T11:41:06.398Z,1.90
2023-01-11T11:43:34.371Z,2.03
2023-01-11T11:46:02.691Z,2.03
2023-01-11T11:48:31.488Z,2.25
2023-01-11T11:51:00.999Z,2.13
2023-01-11T11:53:33.811Z,1.92
2023-01-11T11:56:06.284Z,2.08
2023-01-11T12:00:59.924Z,1.70
2023-01-11T12:03:33.066Z,2.25
2023-01-11T12:06:04.034Z,1.92
2023-01-11T12:08:32.239Z,1.85
2023-01-11T12:11:00.821Z,2.20
2023-01-11T12:13:33.529Z,1.90
2023-01-11T12:16:05.389Z,2.10
2023-01-11T12:18:41.345Z,1.90
2023-01-11T12:21:18.744Z,2.45
2023-01-11T12:23:45.727Z,2.15
2023-01-11T12:26:22.669Z,2.10
2023-01-11T12:29:07.961Z,2.20
2023-01-11T12:31:53.096Z,2.20
2023-01-11T12:34:35.465Z,2.30
2023-01-11T12:37:13.188Z,2.20
2023-01-11T12:39:44.651Z,2.00
2023-01-11T12:42:11.517Z,2.42
2023-01-11T12:44:44.684Z,2.13
2023-01-11T12:47:34.720Z,2.20
2023-01-11T12:50:36.580Z,2.00
2023-01-11T12:53:37.729Z,2.00
2023-01-11T12:56:13.476Z,2.33
2023-01-11T12:58:52.506Z,1.98
2023-01-11T13:01:28.240Z,2.05
2023-01-11T13:04:12.214Z,2.40
2023-01-11T13:06:56.675Z,2.05
2023-01-11T13:09:46.722Z,2.35
2023-01-11T13:12:18.932Z,2.45
2023-01-11T13:14:55.373Z,2.58
2023-01-11T13:17:30.512Z,2.55
2023-01-11T13:20:17.091Z,2.40
2023-01-11T13:22:50.676Z,2.20
2023-01-11T13:25:19.917Z,2.90
2023-01-11T13:27:46.977Z,2.65
2023-01-11T13:30:14.708Z,2.30
2023-01-11T13:32:43.183Z,2.85
2023-01-11T13:35:18.490Z,2.70
2023-01-11T13:37:52.035Z,2.80
2023-01-11T13:40:31.747Z,2.80
2023-01-11T13:43:06.755Z,2.80
2023-01-11T13:45:45.289Z,3.40
2023-01-11T13:48:31.853Z,2.53
2023-01-11T13:51:11.120Z,1.98
2023-01-11T13:53:49.578Z,1.30
2023-01-11T13:56:20.064Z,1.17
2023-01-11T13:58:53.965Z,1.15
2023-01-11T14:01:35.324Z,1.45
2023-01-11T14:04:25.024Z,1.40
2023-01-11T14:07:00.784Z,0.93
2023-01-11T14:09:30.621Z,0.95
2023-01-11T14:12:35.280Z,1.23
2023-01-11T14:15:16.701Z,1.35
2023-01-11T14:18:00.127Z,1.00
2023-01-11T14:20:41.299Z,1.17
2023-01-11T14:23:17.271Z,1.25
2023-01-11T14:26:21.113Z,1.52
2023-01-11T14:29:17.099Z,1.52
2023-01-11T14:31:53.874Z,1.40
2023-01-11T14:34:42.836Z,1.38
2023-01-11T14:37:28.826Z,1.50
2023-01-11T14:40:18.413Z,1.60
2023-01-11T14:42:45.313Z,2.50
2023-01-11T14:45:26.952Z,1.60
2023-01-11T14:48:15.026Z,1.57
2023-01-11T14:50:45.842Z,1.63
2023-01-11T14:53:17.428Z,1.92
2023-01-11T14:55:49.179Z,1.50
2023-01-11T14:58:28.290Z,2.10
2023-01-11T15:00:55.741Z,1.98
2023-01-11T15:03:22.663Z,2.00
2023-01-11T15:05:55.521Z,2.55
2023-01-11T15:08:26.305Z,2.28
2023-01-11T15:11:01.547Z,2.55
2023-01-11T15:13:32.562Z,2.05
2023-01-11T15:16:34.744Z,2.47
2023-01-11T15:19:09.037Z,2.70
2023-01-11T15:21:56.528Z,3.03
2023-01-11T15:24:54.987Z,2.53
2023-01-11T15:27:24.069Z,2.63
2023-01-11T15:29:54.756Z,2.40
2023-01-11T15:32:41.438Z,3.50
2023-01-11T15:35:26.412Z,3.30
2023-01-11T15:38:06.325Z,3.10
2023-01-11T15:40:38.224Z,2.92
2023-01-11T15:43:15.641Z,3.63
2023-01-11T15:46:35.159Z,3.05
2023-01-11T15:49:39.009Z,3.33
2023-01-11T15:52:14.945Z,3.30
2023-01-11T15:54:44.901Z,3.90
2023-01-11T15:57:20.825Z,3.92
2023-01-11T15:59:58.780Z,3.33
2023-01-11T16:02:50.184Z,3.70
2023-01-11T16:05:22.799Z,2.90
2023-01-11T16:08:14.091Z,1.92
2023-01-11T16:11:11.437Z,2.70
2023-01-11T16:13:47.238Z,3.03
2023-01-11T16:16:29.080Z,2.67
2023-01-11T16:18:57.582Z,2.88
2023-01-11T16:21:33.630Z,2.50
2023-01-11T16:24:02.560Z,2.80
2023-01-11T16:26:30.147Z,2.10
2023-01-11T16:28:58.172Z,2.35
2023-01-11T16:31:25.473Z,2.38
2023-01-11T16:33:53.320Z,2.40
2023-01-11T16:36:23.739Z,2.05
2023-01-11T16:39:04.487Z,2.10
2023-01-11T16:41:57.153Z,1.73
2023-01-11T16:44:28.401Z,1.45
2023-01-11T16:47:04.549Z,1.40
2023-01-11T16:49:31.543Z,1.80
2023-01-11T16:52:01.754Z,1.77
2023-01-11T16:54:32.356Z,1.80
2023-01-11T16:56:59.941Z,1.60
2023-01-11T16:59:30.584Z,1.60
2023-01-11T17:01:59.584Z,1.67
2023-01-11T17:04:36.284Z,1.38
2023-01-11T17:07:22.351Z,1.58
2023-01-11T17:09:49.493Z,1.60
2023-01-11T17:12:18.899Z,1.55
2023-01-11T17:15:27.038Z,1.30
2023-01-11T17:17:53.899Z,1.50
2023-01-11T17:20:22.747Z,1.80
2023-01-11T17:22:53.627Z,1.80
2023-01-11T17:25:29.493Z,2.25
2023-01-11T17:28:12.640Z,1.90
2023-01-11T17:30:39.498Z,2.20
2023-01-11T17:33:06.304Z,1.92
2023-01-11T17:35:34.720Z,1.85
2023-01-11T17:38:08.647Z,2.30
2023-01-11T17:40:39.713Z,3.00
2023-01-11T17:43:36.184Z,2.65
2023-01-11T17:46:05.376Z,2.25
2023-01-11T17:48:35.327Z,2.22
2023-01-11T17:51:03.606Z,2.90
2023-01-11T17:53:34.442Z,2.30
2023-01-11T17:56:04.645Z,2.47
2023-01-11T17:58:36.121Z,2.15
2023-01-11T18:01:12.883Z,2.05
2023-01-11T18:03:46.672Z,2.13
2023-01-11T18:06:13.731Z,1.95
2023-01-11T18:08:44.740Z,2.08
2023-01-11T18:11:11.685Z,1.77
2023-01-11T18:13:38.556Z,1.80
2023-01-11T18:16:05.518Z,2.00
2023-01-11T18:18:42.450Z,1.75
2023-01-11T18:21:32.513Z,1.60
2023-01-11T18:24:11.777Z,1.73
2023-01-11T18:26:42.407Z,1.80
2023-01-11T18:29:37.474Z,2.03
2023-01-11T18:32:05.419Z,1.58
2023-01-11T18:34:32.353Z,2.42
2023-01-11T18:36:59.983Z,2.05
2023-01-11T18:39:32.647Z,2.10
2023-01-11T18:42:08.701Z,2.10
2023-01-11T18:44:36.503Z,2.38
2023-01-11T18:47:13.740Z,2.50
2023-01-11T18:49:40.664Z,2.25
2023-01-11T18:52:07.445Z,2.25
2023-01-11T18:54:34.366Z,2.70
2023-01-11T18:57:01.334Z,3.35
2023-01-11T18:59:28.281Z,2.90
2023-01-11T19:02:17.873Z,3.22
2023-01-11T19:04:44.949Z,3.22
2023-01-11T19:07:15.100Z,3.17
2023-01-11T19:09:42.277Z,3.60
2023-01-11T19:12:09.831Z,4.20
2023-01-11T19:14:36.805Z,4.40
2023-01-11T19:17:06.577Z,4.72
2023-01-11T19:19:33.705Z,3.50
2023-01-11T19:22:00.696Z,3.90
2023-01-11T19:24:27.800Z,3.10
2023-01-11T19:26:55.263Z,3.17
2023-01-11T19:29:24.670Z,3.25
2023-01-11T19:31:52.463Z,3.65
2023-01-11T19:34:24.501Z,3.45
2023-01-11T19:36:51.680Z,3.33
2023-01-11T19:39:18.815Z,3.33
2023-01-11T19:41:54.653Z,3.58
2023-01-11T19:44:22.479Z,3.97
2023-01-11T19:46:53.136Z,3.60
2023-01-11T19:49:23.938Z,3.05
2023-01-11T19:51:50.931Z,2.97
2023-01-11T19:54:20.797Z,3.05
2023-01-11T19:56:48.608Z,2.90
2023-01-11T19:59:17.939Z,3.47
2023-01-11T20:01:45.344Z,2.78
2023-01-11T20:04:16.310Z,3.33
2023-01-11T20:06:50.235Z,3.13
2023-01-11T20:09:18.426Z,3.70
2023-01-11T20:11:49.016Z,3.38
2023-01-11T20:14:16.881Z,3.65
2023-01-11T20:16:43.882Z,2.60
2023-01-11T20:19:10.956Z,3.45
2023-01-11T20:21:58.220Z,3.03
2023-01-11T20:24:28.451Z,2.92
2023-01-11T20:26:58.998Z,2.88
2023-01-11T20:29:25.920Z,3.35
2023-01-11T20:31:52.837Z,3.70
2023-01-11T20:34:21.838Z,3.90
2023-01-11T20:36:49.026Z,3.38
2023-01-11T20:39:17.338Z,3.88
2023-01-11T20:41:46.928Z,3.72
2023-01-11T20:44:16.062Z,4.18
2023-01-11T20:46:43.022Z,3.63
2023-01-11T20:49:09.991Z,3.58
2023-01-11T20:51:37.025Z,3.72
2023-01-11T20:54:05.019Z,3.83
2023-01-11T20:56:33.165Z,3.30
2023-01-11T20:59:02.675Z,4.00
2023-01-11T21:01:32.768Z,4.10
2023-01-11T21:04:04.380Z,3.40
2023-01-11T21:06:32.127Z,4.20
2023-01-11T21:08:59.693Z,3.97
2023-01-11T21:11:26.789Z,4.47
2023-01-11T21:13:54.377Z,3.92
2023-01-11T21:16:24.128Z,4.57
2023-01-11T21:19:01.670Z,4.35
2023-01-11T21:21:29.913Z,5.50
2023-01-11T21:24:03.422Z,4.43
2023-01-11T21:26:34.690Z,4.20
2023-01-11T21:29:03.475Z,4.22
2023-01-11T21:31:35.034Z,3.85
2023-01-11T21:34:02.186Z,4.15
2023-01-11T21:36:30.412Z,3.97
2023-01-11T21:39:00.099Z,4.60
2023-01-11T21:41:47.098Z,4.93
2023-01-11T21:44:14.389Z,5.18
2023-01-11T21:46:43.295Z,5.18
2023-01-11T21:49:10.792Z,3.88
2023-01-11T21:51:37.859Z,4.22
2023-01-11T21:54:06.029Z,3.72
2023-01-11T21:56:32.909Z,3.92
2023-01-11T21:58:59.917Z,3.75
2023-01-11T22:01:29.188Z,3.70
2023-01-11T22:03:56.393Z,3.40
2023-01-11T22:06:23.370Z,3.50
2023-01-11T22:08:50.296Z,3.30
2023-01-11T22:11:17.337Z,2.83
2023-01-11T22:13:44.356Z,3.38
2023-01-11T22:16:16.099Z,3.05
2023-01-11T22:18:43.589Z,3.50
2023-01-11T22:21:15.018Z,2.92
2023-01-11T22:23:44.582Z,3.28
2023-01-11T22:26:16.502Z,2.83
2023-01-11T22:29:01.883Z,3.65
2023-01-11T22:31:29.061Z,3.35
2023-01-11T22:33:56.142Z,3.58
2023-01-11T22:36:23.532Z,2.80
2023-01-11T22:38:50.622Z,2.80
2023-01-11T22:41:17.568Z,3.50
2023-01-11T22:43:44.691Z,2.70
2023-01-11T22:46:16.190Z,3.38
2023-01-11T22:48:43.800Z,3.20
2023-01-11T22:51:10.952Z,3.03
2023-01-11T22:53:42.589Z,3.00
2023-01-11T22:56:10.154Z,2.97
2023-01-11T22:58:37.221Z,3.40
2023-01-11T23:01:37.364Z,3.92
2023-01-11T23:04:04.897Z,2.83
2023-01-11T23:06:33.929Z,3.05
2023-01-11T23:09:00.972Z,3.47
2023-01-11T23:11:48.237Z,3.00
2023-01-11T23:14:17.352Z,3.08
2023-01-11T23:16:45.165Z,2.97
2023-01-11T23:19:12.657Z,3.17
2023-01-11T23:21:40.606Z,3.63
2023-01-11T23:24:07.900Z,3.25
2023-01-11T23:26:34.779Z,2.58
2023-01-11T23:29:01.618Z,3.72
2023-01-11T23:31:29.490Z,3.67
2023-01-11T23:33:57.973Z,3.78
2023-01-11T23:36:28.510Z,3.95
2023-01-11T23:38:55.440Z,4.15
2023-01-11T23:41:40.824Z,3.70
2023-01-11T23:44:09.299Z,4.47
2023-01-11T23:46:55.400Z,4.90
2023-01-11T23:49:22.368Z,4.65
2023-01-11T23:51:49.216Z,4.60
2023-01-11T23:54:16.283Z,4.80
2023-01-11T23:56:43.228Z,4.97
2023-01-11T23:59:10.204Z,4.43
